createdAt,value
2022-11-28T00:01:38.139Z,9.43
2022-11-28T00:04:10.127Z,9.10
2022-11-28T00:06:40.134Z,9.73
2022-11-28T00:09:09.609Z,9.00
2022-11-28T00:11:37.690Z,9.57
2022-11-28T00:14:05.803Z,9.40
2022-11-28T00:16:34.082Z,9.53
2022-11-28T00:19:02.997Z,9.07
2022-11-28T00:21:32.467Z,9.40
2022-11-28T00:24:01.453Z,9.43
2022-11-28T00:26:31.589Z,9.70
2022-11-28T00:29:00.542Z,9.87
2022-11-28T00:31:30.702Z,9.67
2022-11-28T00:33:58.954Z,9.50
2022-11-28T00:36:26.903Z,9.50
2022-11-28T00:38:56.641Z,9.33
2022-11-28T00:41:27.025Z,9.77
2022-11-28T00:43:55.344Z,9.73
2022-11-28T00:46:24.463Z,9.37
2022-11-28T00:48:52.897Z,9.87
2022-11-28T00:51:22.985Z,9.83
2022-11-28T00:53:52.634Z,9.33
2022-11-28T00:56:24.718Z,9.70
2022-11-28T00:58:52.966Z,9.50
2022-11-28T01:01:22.806Z,9.53
2022-11-28T01:03:52.518Z,9.03
2022-11-28T01:06:24.863Z,9.83
2022-11-28T01:08:53.137Z,10.30
2022-11-28T01:11:23.661Z,9.73
2022-11-28T01:13:51.893Z,10.30
2022-11-28T01:16:20.047Z,9.90
2022-11-28T01:18:48.060Z,9.37
2022-11-28T01:21:16.077Z,10.40
2022-11-28T01:23:44.450Z,9.30
2022-11-28T01:26:17.832Z,9.63
2022-11-28T01:28:47.363Z,9.73
2022-11-28T01:31:17.914Z,10.73
2022-11-28T01:33:46.214Z,10.33
2022-11-28T01:36:15.371Z,10.70
2022-11-28T01:38:43.960Z,10.03
2022-11-28T01:41:12.460Z,11.00
2022-11-28T01:44:00.789Z,10.00
2022-11-28T01:46:33.099Z,10.10
2022-11-28T01:49:05.640Z,9.70
2022-11-28T01:51:34.748Z,10.20
2022-11-28T01:54:03.776Z,10.20
2022-11-28T01:56:41.006Z,9.83
2022-11-28T01:59:12.836Z,9.73
2022-11-28T02:01:41.133Z,9.93
2022-11-28T02:04:10.166Z,10.67
2022-11-28T02:06:38.181Z,10.23
2022-11-28T02:09:10.740Z,10.60
2022-11-28T02:12:09.558Z,10.27
2022-11-28T02:15:01.874Z,10.73
2022-11-28T02:17:42.015Z,9.93
2022-11-28T02:20:48.168Z,10.43
2022-11-28T02:23:23.532Z,9.60
2022-11-28T02:26:11.907Z,10.30
2022-11-28T02:29:04.053Z,11.20
2022-11-28T02:31:57.597Z,11.00
2022-11-28T02:34:32.096Z,10.27
2022-11-28T02:37:07.336Z,10.13
2022-11-28T02:39:44.370Z,10.10
2022-11-28T02:42:19.446Z,10.27
2022-11-28T02:44:56.116Z,10.00
2022-11-28T02:47:26.829Z,10.30
2022-11-28T02:50:26.686Z,10.63
2022-11-28T02:53:01.269Z,10.57
2022-11-28T02:55:29.281Z,11.10
2022-11-28T02:57:57.277Z,10.93
2022-11-28T03:00:29.383Z,11.27
2022-11-28T03:03:17.304Z,11.17
2022-11-28T03:05:50.630Z,11.13
2022-11-28T03:08:36.562Z,10.87
2022-11-28T03:11:11.395Z,11.57
2022-11-28T03:13:43.468Z,11.00
2022-11-28T03:16:20.017Z,11.13
2022-11-28T03:19:02.242Z,12.03
2022-11-28T03:21:38.351Z,11.97
2022-11-28T03:24:14.007Z,11.53
2022-11-28T03:26:48.278Z,10.67
2022-11-28T03:29:21.743Z,12.03
2022-11-28T03:31:55.000Z,11.50
2022-11-28T03:34:27.931Z,11.33
2022-11-28T03:37:00.801Z,11.57
2022-11-28T03:39:35.384Z,11.67
2022-11-28T03:42:08.601Z,11.43
2022-11-28T03:44:41.056Z,11.63
2022-11-28T03:47:09.690Z,12.60
2022-11-28T03:49:40.828Z,11.83
2022-11-28T03:52:11.998Z,11.80
2022-11-28T03:54:49.852Z,11.23
2022-11-28T03:57:26.076Z,11.40
2022-11-28T03:59:56.259Z,11.73
2022-11-28T04:02:31.737Z,12.20
2022-11-28T04:05:04.351Z,12.23
2022-11-28T04:07:39.817Z,11.47
2022-11-28T04:10:15.425Z,11.80
2022-11-28T04:12:52.806Z,11.83
2022-11-28T04:15:27.862Z,12.03
2022-11-28T04:18:01.751Z,11.50
2022-11-28T04:20:36.669Z,12.27
2022-11-28T04:23:10.370Z,11.93
2022-11-28T04:25:45.711Z,11.87
2022-11-28T04:28:19.765Z,10.90
2022-11-28T04:30:50.828Z,12.80
2022-11-28T04:33:22.367Z,12.10
2022-11-28T04:35:53.039Z,12.03
2022-11-28T04:38:24.389Z,11.33
2022-11-28T04:40:57.568Z,11.27
2022-11-28T04:43:30.644Z,11.83
2022-11-28T04:46:05.533Z,11.70
2022-11-28T04:48:34.826Z,11.17
2022-11-28T04:51:11.438Z,11.57
2022-11-28T04:53:48.937Z,11.47
2022-11-28T04:56:22.900Z,11.67
2022-11-28T04:58:52.301Z,11.63
2022-11-28T05:01:24.450Z,11.53
2022-11-28T05:03:53.069Z,11.80
2022-11-28T05:06:27.033Z,12.17
2022-11-28T05:08:54.939Z,11.07
2022-11-28T05:11:24.416Z,12.17
2022-11-28T05:13:54.510Z,12.10
2022-11-28T05:16:23.678Z,11.80
2022-11-28T05:18:52.094Z,11.90
2022-11-28T05:21:20.380Z,12.87
2022-11-28T05:23:50.363Z,12.10
2022-11-28T05:26:20.494Z,11.53
2022-11-28T05:28:52.063Z,11.47
2022-11-28T05:31:26.721Z,12.07
2022-11-28T05:33:55.792Z,12.23
2022-11-28T05:36:26.211Z,11.53
2022-11-28T05:38:56.887Z,11.83
2022-11-28T05:41:29.011Z,12.63
2022-11-28T05:44:01.455Z,11.90
2022-11-28T05:46:30.233Z,11.83
2022-11-28T05:48:58.482Z,11.67
2022-11-28T05:51:26.435Z,12.40
2022-11-28T05:53:57.060Z,13.40
2022-11-28T05:56:25.202Z,11.83
2022-11-28T05:58:54.567Z,12.97
2022-11-28T06:01:25.465Z,12.40
2022-11-28T06:03:58.243Z,11.87
2022-11-28T06:06:27.206Z,11.50
2022-11-28T06:08:55.984Z,12.80
2022-11-28T06:11:25.910Z,12.23
2022-11-28T06:13:54.411Z,12.53
2022-11-28T06:16:25.306Z,12.80
2022-11-28T06:18:54.582Z,11.70
2022-11-28T06:21:24.168Z,11.60
2022-11-28T06:23:52.896Z,12.60
2022-11-28T06:26:24.800Z,11.87
2022-11-28T06:28:52.883Z,13.40
2022-11-28T06:31:24.003Z,12.90
2022-11-28T06:33:52.653Z,12.83
2022-11-28T06:36:21.471Z,12.27
2022-11-28T06:38:50.033Z,13.03
2022-11-28T06:41:20.263Z,12.93
2022-11-28T06:43:51.285Z,12.93
2022-11-28T06:46:21.552Z,13.03
2022-11-28T06:48:52.838Z,13.10
2022-11-28T06:51:21.952Z,14.80
2022-11-28T06:53:50.240Z,13.07
2022-11-28T06:56:20.744Z,12.30
2022-11-28T06:58:54.193Z,12.77
2022-11-28T07:01:24.346Z,12.00
2022-11-28T07:03:55.202Z,13.00
2022-11-28T07:06:24.859Z,12.97
2022-11-28T07:08:53.521Z,13.00
2022-11-28T07:11:24.047Z,13.43
2022-11-28T07:13:52.601Z,13.70
2022-11-28T07:16:23.219Z,12.60
2022-11-28T07:18:51.588Z,13.57
2022-11-28T07:21:21.763Z,14.27
2022-11-28T07:23:50.233Z,13.00
2022-11-28T07:26:20.182Z,13.47
2022-11-28T07:28:49.571Z,13.90
2022-11-28T07:31:20.677Z,13.17
2022-11-28T07:33:52.714Z,13.17
2022-11-28T07:36:23.412Z,13.40
2022-11-28T07:38:53.489Z,14.27
2022-11-28T07:41:26.206Z,13.80
2022-11-28T07:43:56.636Z,13.47
2022-11-28T07:46:26.293Z,13.50
2022-11-28T07:48:54.348Z,14.27
2022-11-28T07:51:25.805Z,13.93
2022-11-28T07:53:54.207Z,13.23
2022-11-28T07:56:24.846Z,14.17
2022-11-28T07:58:52.901Z,13.60
2022-11-28T08:01:22.712Z,12.87
2022-11-28T08:03:50.781Z,13.57
2022-11-28T08:06:20.403Z,11.30
2022-11-28T08:08:50.495Z,12.23
2022-11-28T08:11:21.084Z,12.47
2022-11-28T08:13:49.732Z,13.13
2022-11-28T08:16:20.613Z,12.00
2022-11-28T08:18:49.917Z,12.13
2022-11-28T08:21:20.303Z,12.47
2022-11-28T08:23:51.740Z,13.23
2022-11-28T08:26:24.905Z,12.90
2022-11-28T08:28:57.117Z,12.33
2022-11-28T08:31:27.404Z,12.27
2022-11-28T08:33:57.704Z,12.50
2022-11-28T08:36:29.109Z,12.60
2022-11-28T08:39:22.879Z,12.20
2022-11-28T08:41:49.809Z,13.07
2022-11-28T08:44:18.364Z,12.97
2022-11-28T08:46:46.613Z,13.23
2022-11-28T08:49:21.870Z,12.97
2022-11-28T08:51:50.025Z,12.70
2022-11-28T08:54:19.544Z,12.53
2022-11-28T08:56:50.128Z,11.80
2022-11-28T08:59:18.294Z,11.83
2022-11-28T09:01:46.204Z,12.83
2022-11-28T09:04:14.352Z,12.40
2022-11-28T09:06:44.167Z,12.53
2022-11-28T09:09:16.365Z,11.57
2022-11-28T09:11:46.059Z,10.97
2022-11-28T09:14:16.221Z,10.83
2022-11-28T09:16:44.982Z,10.60
2022-11-28T09:19:13.169Z,10.77
2022-11-28T09:21:41.583Z,10.17
2022-11-28T09:24:10.901Z,10.23
2022-11-28T09:26:39.265Z,9.83
2022-11-28T09:29:09.029Z,10.40
2022-11-28T09:31:37.251Z,9.80
2022-11-28T09:34:09.177Z,9.63
2022-11-28T09:36:40.318Z,9.57
2022-11-28T09:39:08.316Z,10.70
2022-11-28T09:42:01.913Z,9.63
2022-11-28T09:44:39.089Z,9.60
2022-11-28T09:47:13.228Z,10.57
2022-11-28T09:49:47.594Z,10.70
2022-11-28T09:52:26.976Z,10.50
2022-11-28T09:55:03.005Z,9.83
2022-11-28T09:57:35.591Z,9.23
2022-11-28T10:00:07.036Z,9.70
2022-11-28T10:02:40.319Z,9.70
2022-11-28T10:05:18.797Z,9.37
2022-11-28T10:08:01.696Z,10.57
2022-11-28T10:10:38.911Z,9.93
2022-11-28T10:13:14.912Z,10.10
2022-11-28T10:15:56.834Z,10.50
2022-11-28T10:18:35.873Z,10.10
2022-11-28T10:21:09.888Z,10.93
2022-11-28T10:23:43.441Z,9.97
2022-11-28T10:26:19.639Z,10.37
2022-11-28T10:28:51.270Z,10.33
2022-11-28T10:31:30.821Z,10.57
2022-11-28T10:34:03.719Z,10.47
2022-11-28T10:36:35.404Z,8.80
2022-11-28T10:39:11.634Z,10.90
2022-11-28T10:42:13.943Z,10.50
2022-11-28T10:45:00.689Z,10.53
2022-11-28T10:47:50.998Z,10.07
2022-11-28T10:50:32.506Z,10.43
2022-11-28T10:53:04.536Z,9.60
2022-11-28T10:55:44.327Z,9.80
2022-11-28T10:58:24.955Z,9.70
2022-11-28T11:00:56.006Z,9.70
2022-11-28T11:03:29.563Z,10.67
2022-11-28T11:05:57.633Z,10.87
2022-11-28T11:08:28.181Z,10.03
2022-11-28T11:11:02.406Z,10.40
2022-11-28T11:13:33.153Z,10.53
2022-11-28T11:16:03.751Z,11.27
2022-11-28T11:18:36.173Z,10.20
2022-11-28T11:21:17.473Z,10.97
2022-11-28T11:23:45.670Z,10.33
2022-11-28T11:26:26.710Z,11.13
2022-11-28T11:28:55.707Z,11.23
2022-11-28T11:31:26.695Z,10.57
2022-11-28T11:34:04.252Z,10.63
2022-11-28T11:36:34.344Z,11.43
2022-11-28T11:39:18.014Z,12.40
2022-11-28T11:41:47.600Z,10.77
2022-11-28T11:44:35.522Z,10.47
2022-11-28T11:47:05.522Z,11.30
2022-11-28T11:52:07.006Z,11.87
2022-11-28T11:54:35.129Z,11.50
2022-11-28T11:57:31.382Z,11.93
2022-11-28T11:59:56.574Z,12.23
2022-11-28T12:02:29.843Z,10.93
2022-11-28T12:05:03.884Z,11.00
2022-11-28T12:07:40.665Z,12.57
2022-11-28T12:10:16.500Z,11.73
2022-11-28T12:12:44.560Z,11.77
2022-11-28T12:15:20.589Z,11.77
2022-11-28T12:18:01.638Z,12.00
2022-11-28T12:20:45.075Z,11.80
2022-11-28T12:23:31.132Z,12.33
2022-11-28T12:26:07.238Z,12.40
2022-11-28T12:28:47.456Z,12.13
2022-11-28T12:31:25.797Z,12.53
2022-11-28T12:34:04.395Z,12.90
2022-11-28T12:36:38.990Z,11.73
2022-11-28T12:39:28.538Z,17.60
2022-11-28T12:42:16.640Z,14.13
2022-11-28T12:45:00.992Z,12.57
2022-11-28T12:47:41.488Z,13.37
2022-11-28T12:50:22.786Z,13.53
2022-11-28T12:52:59.782Z,14.17
2022-11-28T12:55:42.688Z,12.17
2022-11-28T12:58:19.741Z,12.27
2022-11-28T13:00:56.551Z,12.10
2022-11-28T13:03:41.087Z,14.07
2022-11-28T13:06:27.830Z,14.13
2022-11-28T13:09:25.632Z,12.97
2022-11-28T13:12:04.869Z,14.50
2022-11-28T13:14:42.282Z,13.93
2022-11-28T13:17:24.456Z,14.13
2022-11-28T13:20:00.338Z,14.87
2022-11-28T13:22:34.102Z,16.47
2022-11-28T13:25:09.011Z,15.13
2022-11-28T13:27:45.824Z,16.17
2022-11-28T13:30:22.581Z,15.57
2022-11-28T13:32:58.611Z,23.67
2022-11-28T13:35:28.775Z,17.40
2022-11-28T13:40:55.677Z,16.30
2022-11-28T13:43:34.999Z,18.07
2022-11-28T13:46:03.496Z,20.63
2022-11-28T13:49:14.481Z,16.33
2022-11-28T13:51:44.494Z,16.13
2022-11-28T13:54:47.777Z,17.77
2022-11-28T13:57:30.461Z,17.27
2022-11-28T14:00:05.965Z,17.33
2022-11-28T14:02:43.070Z,16.30
2022-11-28T14:05:28.293Z,17.10
2022-11-28T14:07:57.646Z,15.07
2022-11-28T14:10:50.621Z,20.67
2022-11-28T14:13:49.942Z,15.93
2022-11-28T14:16:33.373Z,20.03
2022-11-28T14:19:15.799Z,18.87
2022-11-28T14:21:59.733Z,17.07
2022-11-28T14:24:42.843Z,17.00
2022-11-28T14:27:21.036Z,17.63
2022-11-28T14:29:51.605Z,17.67
2022-11-28T14:32:33.588Z,18.00
2022-11-28T14:35:02.722Z,17.80
2022-11-28T14:37:49.187Z,17.80
2022-11-28T14:41:06.341Z,18.27
2022-11-28T14:43:38.829Z,18.33
2022-11-28T14:46:29.012Z,17.13
2022-11-28T14:49:23.857Z,18.73
2022-11-28T14:52:38.495Z,21.73
2022-11-28T14:55:18.541Z,18.23
2022-11-28T14:57:58.569Z,17.40
2022-11-28T15:00:28.317Z,18.93
2022-11-28T15:03:19.559Z,18.60
2022-11-28T15:05:51.685Z,18.53
2022-11-28T15:08:53.152Z,18.17
2022-11-28T15:11:44.802Z,18.10
2022-11-28T15:14:24.037Z,18.50
2022-11-28T15:16:56.109Z,18.00
2022-11-28T15:19:27.637Z,18.90
2022-11-28T15:21:57.585Z,19.60
2022-11-28T15:24:28.982Z,19.50
2022-11-28T15:27:00.211Z,20.27
2022-11-28T15:29:29.569Z,19.73
2022-11-28T15:31:59.127Z,19.60
2022-11-28T15:34:30.076Z,19.17
2022-11-28T15:37:01.720Z,20.90
2022-11-28T15:39:35.203Z,19.97
2022-11-28T15:42:04.970Z,19.40
2022-11-28T15:44:33.244Z,25.93
2022-11-28T15:47:01.407Z,21.57
2022-11-28T15:52:06.805Z,20.03
2022-11-28T15:54:38.493Z,20.43
2022-11-28T15:57:07.170Z,21.40
2022-11-28T15:59:35.504Z,23.90
2022-11-28T16:02:12.214Z,23.43
2022-11-28T16:04:42.887Z,23.03
2022-11-28T16:07:14.743Z,21.70
2022-11-28T16:09:54.097Z,22.43
2022-11-28T16:12:22.232Z,21.47
2022-11-28T16:14:53.234Z,21.63
2022-11-28T16:17:24.738Z,22.23
2022-11-28T16:19:55.591Z,21.30
2022-11-28T16:22:31.950Z,21.03
2022-11-28T16:25:14.771Z,21.17
2022-11-28T16:27:48.594Z,21.70
2022-11-28T16:30:27.677Z,22.13
2022-11-28T16:32:57.097Z,22.47
2022-11-28T16:35:30.228Z,21.73
2022-11-28T16:38:17.525Z,27.50
2022-11-28T16:40:46.078Z,21.60
2022-11-28T16:43:22.335Z,26.67
2022-11-28T16:45:59.709Z,22.00
2022-11-28T16:48:29.587Z,23.43
2022-11-28T16:51:28.673Z,20.97
2022-11-28T16:53:59.509Z,20.30
2022-11-28T16:56:43.528Z,20.57
2022-11-28T16:59:14.636Z,21.00
2022-11-28T17:01:44.001Z,20.17
2022-11-28T17:04:21.857Z,21.40
2022-11-28T17:06:50.437Z,19.80
2022-11-28T17:09:20.169Z,20.70
2022-11-28T17:11:55.555Z,21.27
2022-11-28T17:14:23.534Z,20.10
2022-11-28T17:16:51.636Z,21.47
2022-11-28T17:19:19.786Z,20.83
2022-11-28T17:21:52.069Z,20.43
2022-11-28T17:24:23.990Z,20.30
2022-11-28T17:26:53.441Z,20.60
2022-11-28T17:29:22.222Z,20.63
2022-11-28T17:31:50.464Z,20.53
2022-11-28T17:34:20.079Z,20.40
2022-11-28T17:36:48.681Z,21.23
2022-11-28T17:39:17.948Z,20.77
2022-11-28T17:41:48.310Z,22.17
2022-11-28T17:44:20.341Z,23.40
2022-11-28T17:46:48.427Z,21.27
2022-11-28T17:49:16.435Z,22.03
2022-11-28T17:51:44.601Z,22.20
2022-11-28T17:54:14.075Z,20.53
2022-11-28T17:56:42.030Z,23.70
2022-11-28T17:59:13.306Z,21.53
2022-11-28T18:01:41.798Z,21.63
2022-11-28T18:04:43.206Z,20.53
2022-11-28T18:07:31.949Z,20.03
2022-11-28T18:10:20.111Z,19.73
2022-11-28T18:12:48.954Z,21.13
2022-11-28T18:15:18.519Z,23.10
2022-11-28T18:17:46.646Z,30.87
2022-11-28T18:20:14.723Z,25.87
2022-11-28T18:22:43.121Z,28.97
2022-11-28T18:25:11.283Z,25.53
2022-11-28T18:27:39.299Z,23.30
2022-11-28T18:30:08.602Z,22.80
2022-11-28T18:32:37.877Z,21.87
2022-11-28T18:35:06.780Z,22.40
2022-11-28T18:37:34.790Z,22.70
2022-11-28T18:40:07.666Z,21.83
2022-11-28T18:42:37.200Z,21.67
2022-11-28T18:45:05.832Z,23.60
2022-11-28T18:47:37.207Z,25.37
2022-11-28T18:50:06.931Z,24.30
2022-11-28T18:52:34.907Z,24.50
2022-11-28T18:55:03.249Z,25.90
2022-11-28T18:57:33.605Z,24.80
2022-11-28T19:00:02.239Z,25.17
2022-11-28T19:02:30.862Z,24.43
2022-11-28T19:05:00.683Z,25.17
2022-11-28T19:07:28.706Z,25.23
2022-11-28T19:09:56.631Z,25.63
2022-11-28T19:12:24.603Z,26.70
2022-11-28T19:14:56.108Z,25.87
2022-11-28T19:17:26.795Z,25.73
2022-11-28T19:19:55.065Z,26.23
2022-11-28T19:22:24.354Z,26.20
2022-11-28T19:24:52.220Z,27.03
2022-11-28T19:27:20.118Z,26.57
2022-11-28T19:29:48.034Z,25.60
2022-11-28T19:32:16.984Z,27.00
2022-11-28T19:34:45.000Z,25.20
2022-11-28T19:37:15.185Z,24.17
2022-11-28T19:39:44.954Z,25.07
2022-11-28T19:42:13.037Z,24.30
2022-11-28T19:44:41.085Z,33.17
2022-11-28T19:47:09.206Z,25.37
2022-11-28T19:49:37.107Z,24.83
2022-11-28T19:52:06.090Z,25.07
2022-11-28T19:54:35.182Z,25.63
2022-11-28T19:57:04.951Z,25.37
2022-11-28T19:59:32.916Z,24.63
2022-11-28T20:02:02.635Z,22.53
2022-11-28T20:04:30.988Z,22.50
2022-11-28T20:06:59.108Z,23.60
2022-11-28T20:09:27.215Z,21.60
2022-11-28T20:11:55.301Z,21.77
2022-11-28T20:14:24.694Z,23.83
2022-11-28T20:16:52.714Z,22.67
2022-11-28T20:19:20.882Z,22.57
2022-11-28T20:21:49.083Z,24.27
2022-11-28T20:24:19.377Z,23.83
2022-11-28T20:26:47.537Z,21.47
2022-11-28T20:29:17.150Z,21.50
2022-11-28T20:31:48.030Z,21.17
2022-11-28T20:34:18.057Z,21.77
2022-11-28T20:36:46.404Z,25.63
2022-11-28T20:39:14.430Z,26.70
2022-11-28T20:41:42.403Z,28.40
2022-11-28T20:44:12.119Z,27.53
2022-11-28T20:46:40.324Z,23.23
2022-11-28T20:49:09.786Z,22.40
2022-11-28T20:51:37.776Z,22.80
2022-11-28T20:54:07.154Z,22.00
2022-11-28T20:56:58.322Z,22.00
2022-11-28T20:59:27.224Z,22.10
2022-11-28T21:01:55.445Z,21.20
2022-11-28T21:04:25.134Z,21.27
2022-11-28T21:06:53.234Z,20.73
2022-11-28T21:09:23.687Z,21.37
2022-11-28T21:11:59.605Z,22.30
2022-11-28T21:14:29.084Z,21.87
2022-11-28T21:17:05.800Z,21.73
2022-11-28T21:19:35.205Z,21.90
2022-11-28T21:22:03.198Z,20.83
2022-11-28T21:24:31.356Z,21.57
2022-11-28T21:26:59.440Z,22.83
2022-11-28T21:29:27.356Z,22.03
2022-11-28T21:31:55.551Z,21.47
2022-11-28T21:34:23.838Z,21.90
2022-11-28T21:36:57.017Z,22.10
2022-11-28T21:39:24.923Z,21.57
2022-11-28T21:41:52.768Z,23.40
2022-11-28T21:44:21.067Z,21.47
2022-11-28T21:46:48.998Z,22.13
2022-11-28T21:49:17.200Z,22.10
2022-11-28T21:51:45.200Z,23.13
2022-11-28T21:54:14.671Z,23.87
2022-11-28T21:56:43.048Z,23.70
2022-11-28T21:59:10.968Z,22.20
2022-11-28T22:01:40.288Z,23.80
2022-11-28T22:04:08.868Z,22.97
2022-11-28T22:06:36.695Z,24.80
2022-11-28T22:09:09.469Z,22.10
2022-11-28T22:11:39.889Z,21.97
2022-11-28T22:14:07.964Z,23.03
2022-11-28T22:16:36.116Z,24.17
2022-11-28T22:19:04.158Z,23.80
2022-11-28T22:24:20.788Z,24.23
2022-11-28T22:26:50.282Z,23.57
2022-11-28T22:29:18.333Z,24.77
2022-11-28T22:31:46.372Z,24.40
2022-11-28T22:34:14.408Z,23.27
2022-11-28T22:36:42.790Z,24.03
2022-11-28T22:39:12.179Z,23.87
2022-11-28T22:41:40.294Z,23.47
2022-11-28T22:44:11.301Z,25.47
2022-11-28T22:46:39.218Z,25.17
2022-11-28T22:49:08.003Z,23.73
2022-11-28T22:51:37.001Z,22.50
2022-11-28T22:54:05.456Z,23.57
2022-11-28T22:56:34.498Z,24.90
2022-11-28T22:59:04.720Z,24.87
2022-11-28T23:01:34.655Z,25.20
2022-11-28T23:04:02.811Z,25.23
2022-11-28T23:06:32.781Z,25.90
2022-11-28T23:09:02.961Z,24.80
2022-11-28T23:11:33.342Z,25.53
2022-11-28T23:14:02.661Z,25.70
2022-11-28T23:16:34.135Z,26.20
2022-11-28T23:19:04.569Z,26.43
2022-11-28T23:21:34.670Z,23.50
2022-11-28T23:24:02.572Z,25.70
2022-11-28T23:26:32.360Z,24.37
2022-11-28T23:29:01.867Z,24.47
2022-11-28T23:31:31.499Z,25.40
2022-11-28T23:34:01.763Z,24.07
2022-11-28T23:36:33.733Z,24.67
2022-11-28T23:39:07.701Z,24.77
2022-11-28T23:41:35.649Z,23.87
2022-11-28T23:44:03.637Z,25.07
2022-11-28T23:46:31.740Z,26.77
2022-11-28T23:49:00.998Z,24.53
2022-11-28T23:51:28.964Z,25.23
2022-11-28T23:53:57.113Z,24.77
2022-11-28T23:56:28.062Z,24.53
2022-11-28T23:58:57.886Z,25.20
